Time;durP1;ratioP1;P1;durP2;ratioP2;P2;SDS_P1;SDS_P2;PMS_P1;PMS_P2;Temp;Humidity;BMP_temperature;BMP_pressure;BME280_temperature;BME280_humidity;BME280_pressure;Samples;Min_cycle;Max_cycle;Signal;HPM_P1;HPM_P2
2021/06/02 00:00:16;;;;;;;2.00;0.70;;;;;;;-148.58;100.00;55229.56;5031987;28;20028;-59
2021/06/02 00:02:49;;;;;;;2.08;0.70;;;;;;;-148.58;100.00;55229.56;5031842;28;20104;-59
2021/06/02 00:05:16;;;;;;;1.45;0.50;;;;;;;-148.58;100.00;55229.56;5031872;28;20036;-58
2021/06/02 00:07:43;;;;;;;0.95;0.70;;;;;;;-148.58;100.00;55229.56;5033569;28;20037;-58
2021/06/02 00:10:10;;;;;;;1.02;0.63;;;;;;;-148.58;100.00;55229.56;5035616;28;20052;-59
2021/06/02 00:12:36;;;;;;;2.85;1.13;;;;;;;-148.58;100.00;55229.56;5017599;28;20026;-58
2021/06/02 00:15:04;;;;;;;0.73;0.50;;;;;;;-148.58;100.00;55229.56;5035349;28;20056;-59
2021/06/02 00:17:30;;;;;;;1.30;0.57;;;;;;;-148.58;100.00;55229.56;5035252;28;20025;-59
2021/06/02 00:19:55;;;;;;;0.68;0.52;;;;;;;-148.58;100.00;55229.56;5035373;28;20334;-59
2021/06/02 00:22:21;;;;;;;1.30;0.65;;;;;;;-148.58;100.00;55229.56;5015434;28;20500;-58
2021/06/02 00:24:47;;;;;;;1.30;0.70;;;;;;;-148.58;100.00;55229.56;5015359;28;20026;-59
2021/06/02 00:27:12;;;;;;;1.50;0.60;;;;;;;-148.58;100.00;55229.56;5015340;28;20029;-58
2021/06/02 00:29:40;;;;;;;1.50;0.52;;;;;;;-148.58;100.00;55229.56;5015284;28;20444;-58
2021/06/02 00:32:08;;;;;;;0.93;0.70;;;;;;;-148.58;100.00;55229.56;5015342;28;20022;-58
2021/06/02 00:34:34;;;;;;;0.52;0.47;;;;;;;-148.58;100.00;55229.56;5015230;28;20088;-60
2021/06/02 00:37:02;;;;;;;1.70;0.55;;;;;;;-148.58;100.00;55229.56;5015234;28;20025;-58
2021/06/02 00:39:27;;;;;;;0.50;0.50;;;;;;;-148.58;100.00;55229.56;5015174;28;20032;-59
2021/06/02 00:41:54;;;;;;;0.85;0.50;;;;;;;-148.58;100.00;55229.56;5015071;28;20030;-58
2021/06/02 00:44:20;;;;;;;0.60;0.50;;;;;;;-148.58;100.00;55229.56;5015473;28;20105;-58
2021/06/02 00:46:47;;;;;;;1.30;0.57;;;;;;;-148.58;100.00;55229.56;5014920;28;20493;-59
2021/06/02 00:49:21;;;;;;;0.70;0.50;;;;;;;-148.58;100.00;55229.56;4997474;28;20384;-60
2021/06/02 00:51:49;;;;;;;0.80;0.43;;;;;;;-148.58;100.00;55229.56;5014891;28;20034;-60
2021/06/02 00:54:15;;;;;;;1.23;0.50;;;;;;;-148.58;100.00;55229.56;5015004;28;20152;-58
2021/06/02 00:56:50;;;;;;;0.82;0.55;;;;;;;-148.58;100.00;55229.56;5014794;28;20104;-58
2021/06/02 00:59:18;;;;;;;1.65;0.52;;;;;;;-148.58;100.00;55229.56;5014964;28;20030;-58
2021/06/02 01:01:44;;;;;;;0.68;0.50;;;;;;;-148.58;100.00;55229.56;5015006;28;20029;-59
2021/06/02 01:04:09;;;;;;;1.88;0.40;;;;;;;-148.58;100.00;55229.56;4997203;28;20152;-58
2021/06/02 01:06:35;;;;;;;2.67;0.88;;;;;;;-148.58;100.00;55229.56;5014507;28;20031;-58
2021/06/02 01:09:04;;;;;;;0.85;0.50;;;;;;;-148.58;100.00;55229.56;5014654;28;20036;-58
2021/06/02 01:11:31;;;;;;;1.30;0.57;;;;;;;-148.58;100.00;55229.56;5014699;28;20038;-58
2021/06/02 01:13:58;;;;;;;1.35;0.50;;;;;;;-148.58;100.00;55229.56;5014582;28;20416;-59
2021/06/02 01:16:31;;;;;;;1.05;0.57;;;;;;;-148.58;100.00;55229.56;5014541;28;20376;-58
2021/06/02 01:18:57;;;;;;;1.52;0.65;;;;;;;-148.58;100.00;55229.56;5013786;28;20022;-60
2021/06/02 01:21:26;;;;;;;1.60;0.52;;;;;;;-148.58;100.00;55229.56;5016942;28;20041;-58
2021/06/02 01:23:59;;;;;;;1.20;0.82;;;;;;;-148.58;100.00;55229.56;5034091;28;20076;-59
2021/06/02 01:26:27;;;;;;;3.38;0.57;;;;;;;-148.58;100.00;55229.56;5034102;28;20476;-59
2021/06/02 01:28:54;;;;;;;0.50;0.50;;;;;;;-148.58;100.00;55229.56;5033951;28;20053;-59
2021/06/02 01:31:40;;;;;;;1.05;0.65;;;;;;;-148.58;100.00;55229.56;5034215;28;20041;-58
2021/06/02 01:34:36;;;;;;;0.77;0.50;;;;;;;-148.58;100.00;55229.56;5034311;28;20087;-59
2021/06/02 01:37:13;;;;;;;0.57;0.57;;;;;;;-148.58;100.00;55229.56;5033902;28;20152;-59
2021/06/02 01:40:07;;;;;;;0.52;0.52;;;;;;;-148.58;100.00;55229.56;5033989;28;20036;-59
2021/06/02 01:42:47;;;;;;;2.83;0.70;;;;;;;-148.58;100.00;55229.56;5033665;28;20040;-59
2021/06/02 01:45:36;;;;;;;1.15;0.70;;;;;;;-148.58;100.00;55229.56;5033724;28;20025;-59
2021/06/02 01:48:27;;;;;;;1.55;0.60;;;;;;;-148.58;100.00;55229.56;5033762;28;20087;-58
2021/06/02 01:51:34;;;;;;;2.30;0.90;;;;;;;-148.58;100.00;55229.56;5033461;28;20018;-59
2021/06/02 01:54:38;;;;;;;1.88;0.68;;;;;;;-148.58;100.00;55229.56;5033692;28;20100;-58
2021/06/02 01:57:31;;;;;;;1.30;0.70;;;;;;;-148.58;100.00;55229.56;4953020;29;20102;-59
2021/06/02 02:00:47;;;;;;;1.75;0.68;;;;;;;-148.58;100.00;55229.56;4953163;29;20109;-58
2021/06/02 02:03:27;;;;;;;1.40;0.73;;;;;;;-148.58;100.00;55229.56;4877175;29;20041;-59
2021/06/02 02:06:11;;;;;;;0.98;0.88;;;;;;;-148.58;100.00;55229.56;4876845;29;20443;-60
2021/06/02 02:09:02;;;;;;;0.87;0.70;;;;;;;-148.58;100.00;55229.56;4877136;29;20040;-59
2021/06/02 02:11:36;;;;;;;2.17;0.77;;;;;;;-148.58;100.00;55229.56;4877156;29;20040;-58
2021/06/02 02:14:22;;;;;;;1.27;0.73;;;;;;;-148.58;100.00;55229.56;4877171;29;20040;-59
2021/06/02 02:16:53;;;;;;;2.00;0.80;;;;;;;-148.58;100.00;55229.56;4876892;29;20025;-58
2021/06/02 02:19:41;;;;;;;0.50;0.50;;;;;;;-148.58;100.00;55229.56;4877180;29;20070;-58
2021/06/02 02:22:35;;;;;;;1.23;0.75;;;;;;;-148.58;100.00;55229.56;4876836;29;20049;-58
2021/06/02 02:25:03;;;;;;;2.35;0.70;;;;;;;-148.58;100.00;55229.56;4821644;29;20046;-58
2021/06/02 02:27:41;;;;;;;1.90;0.43;;;;;;;-148.58;100.00;55229.56;4840439;29;20052;-58
2021/06/02 02:30:16;;;;;;;1.25;0.60;;;;;;;-148.58;100.00;55229.56;4876781;29;20049;-58
2021/06/02 02:32:50;;;;;;;0.75;0.60;;;;;;;-148.58;100.00;55229.56;4876624;29;20037;-58
2021/06/02 02:35:46;;;;;;;0.90;0.55;;;;;;;-148.58;100.00;55229.56;4876633;29;20566;-59
2021/06/02 02:38:32;;;;;;;0.75;0.70;;;;;;;-148.58;100.00;55229.56;4898673;28;20456;-58
2021/06/02 02:41:20;;;;;;;1.13;0.50;;;;;;;-148.58;100.00;55229.56;4971622;28;20512;-59
2021/06/02 02:44:07;;;;;;;1.05;0.50;;;;;;;-148.58;100.00;55229.56;4971502;28;20043;-58
2021/06/02 02:46:54;;;;;;;0.98;0.50;;;;;;;-148.58;100.00;55229.56;4971348;28;20058;-59
2021/06/02 02:49:56;;;;;;;1.40;0.63;;;;;;;-148.58;100.00;55229.56;4971678;28;20035;-59
2021/06/02 02:53:04;;;;;;;1.63;0.50;;;;;;;-148.58;100.00;55229.56;4971326;28;20027;-58
2021/06/02 02:55:32;;;;;;;0.40;0.40;;;;;;;-148.58;100.00;55229.56;4913938;29;20036;-59
2021/06/02 02:58:04;;;;;;;1.00;0.32;;;;;;;-148.58;100.00;55229.56;4914021;29;20535;-58
2021/06/02 03:00:38;;;;;;;0.80;0.47;;;;;;;-148.58;100.00;55229.56;4913875;29;20044;-58
2021/06/02 03:03:16;;;;;;;1.55;0.60;;;;;;;-148.58;100.00;55229.56;4964135;28;20053;-59
2021/06/02 03:06:12;;;;;;;1.02;0.40;;;;;;;-148.58;100.00;55229.56;4971052;28;20445;-58
2021/06/02 03:09:18;;;;;;;0.70;0.30;;;;;;;-148.58;100.00;55229.56;4970994;28;20409;-59
2021/06/02 03:11:44;;;;;;;1.73;0.47;;;;;;;-148.58;100.00;55229.56;4913662;29;20067;-58
2021/06/02 03:14:17;;;;;;;1.38;0.40;;;;;;;-148.58;100.00;55229.56;4914001;29;20055;-58
2021/06/02 03:16:53;;;;;;;1.27;0.50;;;;;;;-148.58;100.00;55229.56;4897857;29;20032;-58
2021/06/02 03:19:24;;;;;;;0.52;0.30;;;;;;;-148.58;100.00;55229.56;4913982;29;20032;-60
2021/06/02 03:22:10;;;;;;;1.05;0.60;;;;;;;-148.58;100.00;55229.56;4913462;29;20559;-59
2021/06/02 03:24:42;;;;;;;3.65;0.70;;;;;;;-148.58;100.00;55229.56;4913676;29;20032;-59
2021/06/02 03:27:16;;;;;;;0.90;0.38;;;;;;;-148.58;100.00;55229.56;4913615;29;20095;-58
2021/06/02 03:30:04;;;;;;;1.55;0.22;;;;;;;-148.58;100.00;55229.56;4913707;29;20048;-58
2021/06/02 03:32:54;;;;;;;0.63;0.40;;;;;;;-148.58;100.00;55229.56;4913617;29;20122;-58
2021/06/02 03:35:31;;;;;;;2.00;0.20;;;;;;;-148.58;100.00;55229.56;4913887;29;20039;-58
2021/06/02 03:38:15;;;;;;;0.52;0.38;;;;;;;-148.58;100.00;55229.56;4913654;29;20028;-58
2021/06/02 03:40:57;;;;;;;0.63;0.50;;;;;;;-148.58;100.00;55229.56;4913541;29;20038;-59
2021/06/02 03:43:27;;;;;;;1.17;0.30;;;;;;;-148.58;100.00;55229.56;4916585;29;20039;-58
2021/06/02 03:46:34;;;;;;;3.55;0.90;;;;;;;-148.58;100.00;55229.56;4917256;29;20028;-59
2021/06/02 03:49:14;;;;;;;0.68;0.28;;;;;;;-148.58;100.00;55229.56;4994867;28;20100;-58
2021/06/02 03:51:52;;;;;;;0.90;0.30;;;;;;;-148.58;100.00;55229.56;5015983;28;20030;-58
2021/06/02 03:54:26;;;;;;;0.93;0.30;;;;;;;-148.58;100.00;55229.56;5016173;28;20025;-58
2021/06/02 03:57:16;;;;;;;0.57;0.30;;;;;;;-148.58;100.00;55229.56;5015940;28;20018;-58
2021/06/02 04:00:03;;;;;;;0.98;0.25;;;;;;;-148.58;100.00;55229.56;5015874;28;20025;-59
2021/06/02 04:02:54;;;;;;;0.70;0.20;;;;;;;-148.58;100.00;55229.56;4998197;28;20030;-58
2021/06/02 04:05:56;;;;;;;0.93;0.40;;;;;;;-148.58;100.00;55229.56;5016201;28;20029;-59
2021/06/02 04:08:33;;;;;;;1.35;0.50;;;;;;;-148.58;100.00;55229.56;5015847;28;20034;-60
2021/06/02 04:11:17;;;;;;;1.75;0.50;;;;;;;-148.58;100.00;55229.56;5031234;28;20107;-58
2021/06/02 04:13:55;;;;;;;1.03;0.23;;;;;;;-148.58;100.00;55229.56;5035458;28;20052;-58
2021/06/02 04:16:29;;;;;;;1.45;0.32;;;;;;;-148.58;100.00;55229.56;5035273;28;20259;-59
2021/06/02 04:18:59;;;;;;;0.95;0.40;;;;;;;-148.58;100.00;55229.56;5035335;28;20028;-60
2021/06/02 04:21:25;;;;;;;0.90;0.30;;;;;;;-148.58;100.00;55229.56;5035239;28;20053;-58
2021/06/02 04:23:52;;;;;;;1.35;0.20;;;;;;;-148.58;100.00;55229.56;5035534;28;20018;-59
2021/06/02 04:26:18;;;;;;;0.50;0.22;;;;;;;-148.58;100.00;55229.56;5017360;28;20029;-58
2021/06/02 04:28:45;;;;;;;0.85;0.20;;;;;;;-148.58;100.00;55229.56;5035169;28;20104;-59
2021/06/02 04:31:13;;;;;;;1.55;0.50;;;;;;;-148.58;100.00;55229.56;5035443;28;20076;-58
2021/06/02 04:33:41;;;;;;;0.63;0.20;;;;;;;-148.58;100.00;55229.56;5017326;28;20017;-58
2021/06/02 04:36:10;;;;;;;1.02;0.57;;;;;;;-148.58;100.00;55229.56;5035116;28;20022;-58
2021/06/02 04:38:36;;;;;;;1.15;0.45;;;;;;;-148.58;100.00;55229.56;5034906;28;20079;-58
2021/06/02 04:41:06;;;;;;;1.63;0.40;;;;;;;-148.58;100.00;55229.56;5017189;28;20435;-58
2021/06/02 04:43:34;;;;;;;0.68;0.30;;;;;;;-148.58;100.00;55229.56;5017048;28;20047;-59
2021/06/02 04:46:03;;;;;;;1.90;0.63;;;;;;;-148.58;100.00;55229.56;5034853;28;20033;-58
2021/06/02 04:48:29;;;;;;;0.98;0.32;;;;;;;-148.58;100.00;55229.56;5034801;28;20104;-59
2021/06/02 04:51:04;;;;;;;0.60;0.30;;;;;;;-148.58;100.00;55229.56;5034702;28;20075;-58
2021/06/02 04:54:06;;;;;;;1.08;0.35;;;;;;;-148.58;100.00;55229.56;5017006;28;20025;-58
2021/06/02 04:56:49;;;;;;;0.40;0.20;;;;;;;-148.58;100.00;55229.56;5034606;28;20031;-58
2021/06/02 04:59:50;;;;;;;2.33;0.32;;;;;;;-148.58;100.00;55229.56;5034795;28;20108;-59
2021/06/02 05:02:43;;;;;;;1.63;0.63;;;;;;;-148.58;100.00;55229.56;5034527;28;20029;-58
2021/06/02 05:05:29;;;;;;;0.60;0.25;;;;;;;-148.58;100.00;55229.56;5034592;28;20476;-58
2021/06/02 05:08:17;;;;;;;0.35;0.20;;;;;;;-148.58;100.00;55229.56;5034554;28;20049;-58
2021/06/02 05:11:30;;;;;;;1.60;0.38;;;;;;;-148.58;100.00;55229.56;4972983;28;20118;-59
2021/06/02 05:14:30;;;;;;;1.50;0.32;;;;;;;-148.58;100.00;55229.56;4973143;28;20122;-58
2021/06/02 05:17:14;;;;;;;1.65;0.30;;;;;;;-148.58;100.00;55229.56;4972985;28;20023;-58
2021/06/02 05:20:16;;;;;;;0.43;0.37;;;;;;;-148.58;100.00;55229.56;4973038;28;20465;-58
2021/06/02 05:23:02;;;;;;;1.63;0.38;;;;;;;-148.58;100.00;55229.56;4953405;29;20790;-58
2021/06/02 05:26:06;;;;;;;0.60;0.20;;;;;;;-148.58;100.00;55229.56;4953695;29;20039;-58
2021/06/02 05:28:59;;;;;;;0.88;0.20;;;;;;;-148.58;100.00;55229.56;4953327;29;20530;-59
2021/06/02 05:31:39;;;;;;;0.32;0.13;;;;;;;-148.58;100.00;55229.56;4953767;29;20035;-59
2021/06/02 05:34:42;;;;;;;0.68;0.10;;;;;;;-148.58;100.00;55229.56;4953653;29;20083;-58
2021/06/02 05:37:31;;;;;;;0.30;0.10;;;;;;;-148.58;100.00;55229.56;4953551;29;20070;-57
2021/06/02 05:40:07;;;;;;;0.30;0.20;;;;;;;-148.58;100.00;55229.56;4953380;29;20039;-59
2021/06/02 05:43:03;;;;;;;0.10;0.10;;;;;;;-148.58;100.00;55229.56;4953333;29;20083;-58
2021/06/02 05:46:06;;;;;;;0.38;0.20;;;;;;;-148.58;100.00;55229.56;4953286;29;20533;-58
2021/06/02 05:48:53;;;;;;;0.73;0.20;;;;;;;-148.58;100.00;55229.56;4999727;28;20057;-59
2021/06/02 05:51:40;;;;;;;0.47;0.30;;;;;;;-148.58;100.00;55229.56;5013986;28;20063;-59
2021/06/02 05:54:23;;;;;;;1.75;0.22;;;;;;;-148.58;100.00;55229.56;5013949;28;20041;-58
2021/06/02 05:57:13;;;;;;;0.80;0.22;;;;;;;-148.58;100.00;55229.56;5013633;28;20064;-58
2021/06/02 06:00:15;;;;;;;0.43;0.20;;;;;;;-148.58;100.00;55229.56;5013465;28;20037;-58
2021/06/02 06:03:06;;;;;;;1.10;0.20;;;;;;;-148.58;100.00;55229.56;5013801;28;20461;-58
2021/06/02 06:06:09;;;;;;;0.95;0.20;;;;;;;-148.58;100.00;55229.56;5024770;28;20116;-59
2021/06/02 06:09:00;;;;;;;0.30;0.15;;;;;;;-148.58;100.00;55229.56;5022761;28;20044;-59
2021/06/02 06:11:44;;;;;;;0.20;0.10;;;;;;;-148.58;100.00;55229.56;5022355;28;20021;-60
2021/06/02 06:14:51;;;;;;;0.25;0.17;;;;;;;-148.58;100.00;55229.56;5024685;28;20416;-58
2021/06/02 06:17:39;;;;;;;1.88;0.20;;;;;;;-148.58;100.00;55229.56;4961093;28;20054;-59
2021/06/02 06:20:36;;;;;;;1.10;0.30;;;;;;;-148.58;100.00;55229.56;4972153;28;20030;-60
2021/06/02 06:23:18;;;;;;;1.23;0.35;;;;;;;-148.58;100.00;55229.56;4979885;28;20533;-58
2021/06/02 06:25:49;;;;;;;0.80;0.20;;;;;;;-148.58;100.00;55229.56;4955908;28;20031;-59
2021/06/02 06:28:30;;;;;;;0.10;0.10;;;;;;;-148.58;100.00;55229.56;4964262;28;20569;-58
2021/06/02 06:30:57;;;;;;;0.90;0.22;;;;;;;-148.58;100.00;55229.56;4964509;28;20066;-58
2021/06/02 06:33:26;;;;;;;1.30;0.40;;;;;;;-148.58;100.00;55229.56;4961456;28;20545;-59
2021/06/02 06:35:52;;;;;;;0.98;0.30;;;;;;;-148.58;100.00;55229.56;4965873;28;20066;-59
2021/06/02 06:38:52;;;;;;;1.00;0.08;;;;;;;-148.58;100.00;55229.56;4943062;29;20038;-59
2021/06/02 06:41:21;;;;;;;1.33;0.32;;;;;;;-148.58;100.00;55229.56;4956514;28;20043;-59
2021/06/02 06:43:49;;;;;;;1.58;0.20;;;;;;;-148.58;100.00;55229.56;4964278;28;20027;-59
2021/06/02 06:46:17;;;;;;;0.88;0.25;;;;;;;-148.58;100.00;55229.56;4958378;28;20093;-59
2021/06/02 06:48:47;;;;;;;1.08;0.60;;;;;;;-148.58;100.00;55229.56;4965859;28;20039;-59
2021/06/02 06:51:16;;;;;;;2.03;0.57;;;;;;;-148.58;100.00;55229.56;4964100;28;20520;-59
2021/06/02 06:53:42;;;;;;;0.60;0.40;;;;;;;-148.58;100.00;55229.56;4973987;28;20046;-59
2021/06/02 06:56:10;;;;;;;2.25;0.30;;;;;;;-148.58;100.00;55229.56;5016601;28;20461;-60
2021/06/02 06:58:36;;;;;;;1.17;0.30;;;;;;;-148.58;100.00;55229.56;5016732;28;20075;-59
2021/06/02 07:01:02;;;;;;;2.10;0.75;;;;;;;-148.58;100.00;55229.56;5021253;28;20025;-58
2021/06/02 07:03:28;;;;;;;0.93;0.40;;;;;;;-148.58;100.00;55229.56;5019466;28;20029;-59
2021/06/02 07:05:54;;;;;;;1.20;0.30;;;;;;;-148.58;100.00;55229.56;5026230;28;20518;-59
2021/06/02 07:08:20;;;;;;;0.82;0.20;;;;;;;-148.58;100.00;55229.56;5017334;28;20034;-58
2021/06/02 07:10:45;;;;;;;1.65;0.63;;;;;;;-148.58;100.00;55229.56;5016163;28;20068;-59
2021/06/02 07:13:14;;;;;;;1.90;0.65;;;;;;;-148.58;100.00;55229.56;5012838;28;20026;-59
2021/06/02 07:15:40;;;;;;;1.15;0.38;;;;;;;-148.58;100.00;55229.56;5019429;28;20053;-59
2021/06/02 07:18:06;;;;;;;1.48;0.50;;;;;;;-148.58;100.00;55229.56;5026180;28;20061;-59
2021/06/02 07:20:32;;;;;;;1.10;0.47;;;;;;;-148.58;100.00;55229.56;5021208;28;20061;-59
2021/06/02 07:22:57;;;;;;;1.23;0.30;;;;;;;-148.58;100.00;55229.56;5018852;28;20400;-59
2021/06/02 07:25:25;;;;;;;0.55;0.20;;;;;;;-148.58;100.00;55229.56;5035350;28;20079;-59
2021/06/02 07:27:52;;;;;;;2.42;0.40;;;;;;;-148.58;100.00;55229.56;5026390;28;20041;-59
2021/06/02 07:30:19;;;;;;;1.05;0.38;;;;;;;-148.58;100.00;55229.56;5026262;28;20029;-59
2021/06/02 07:32:45;;;;;;;1.85;0.40;;;;;;;-148.58;100.00;55229.56;5025880;28;20486;-59
2021/06/02 07:35:11;;;;;;;1.63;0.80;;;;;;;-148.58;100.00;55229.56;5028726;28;20476;-60
2021/06/02 07:37:37;;;;;;;1.88;0.20;;;;;;;-148.58;100.00;55229.56;5023753;28;20025;-60
2021/06/02 07:40:04;;;;;;;1.02;0.35;;;;;;;-148.58;100.00;55229.56;5034246;28;20037;-59
2021/06/02 07:42:29;;;;;;;1.05;0.30;;;;;;;-148.58;100.00;55229.56;5043913;28;20483;-59
2021/06/02 07:44:54;;;;;;;1.45;0.20;;;;;;;-148.58;100.00;55229.56;5035966;28;20028;-59
2021/06/02 07:47:20;;;;;;;1.80;0.40;;;;;;;-148.58;100.00;55229.56;5031463;28;20091;-59
2021/06/02 07:49:46;;;;;;;3.83;0.55;;;;;;;-148.58;100.00;55229.56;5035994;28;20420;-59
2021/06/02 07:52:11;;;;;;;0.50;0.20;;;;;;;-148.58;100.00;55229.56;5035710;28;20024;-58
2021/06/02 07:54:37;;;;;;;0.70;0.30;;;;;;;-148.58;100.00;55229.56;5025407;28;20365;-58
2021/06/02 07:57:02;;;;;;;1.55;0.28;;;;;;;-148.58;100.00;55229.56;5022216;28;20054;-58
2021/06/02 07:59:28;;;;;;;1.02;0.38;;;;;;;-148.58;100.00;55229.56;5025563;28;20109;-58
2021/06/02 08:01:53;;;;;;;2.28;0.40;;;;;;;-148.58;100.00;55229.56;5030907;28;20026;-58
2021/06/02 08:04:18;;;;;;;0.68;0.20;;;;;;;-148.58;100.00;55229.56;5023774;28;20036;-58
2021/06/02 08:06:44;;;;;;;0.50;0.28;;;;;;;-148.58;100.00;55229.56;5021630;28;20022;-59
2021/06/02 08:09:15;;;;;;;1.20;0.20;;;;;;;-148.58;100.00;55229.56;5019836;28;20037;-59
2021/06/02 08:11:40;;;;;;;0.60;0.30;;;;;;;-148.58;100.00;55229.56;5027743;28;20030;-60
2021/06/02 08:14:05;;;;;;;1.63;0.20;;;;;;;-148.58;100.00;55229.56;5019143;28;20037;-59
2021/06/02 08:16:31;;;;;;;0.85;0.20;;;;;;;-148.58;100.00;55229.56;5017241;28;20108;-59
2021/06/02 08:18:56;;;;;;;0.55;0.30;;;;;;;-148.58;100.00;55229.56;5027096;28;21337;-59
2021/06/02 08:21:21;;;;;;;1.60;0.35;;;;;;;-148.58;100.00;55229.56;5018525;28;20525;-59
2021/06/02 08:23:46;;;;;;;1.38;0.50;;;;;;;-148.58;100.00;55229.56;5022734;28;20033;-61
2021/06/02 08:26:12;;;;;;;0.82;0.55;;;;;;;-148.58;100.00;55229.56;5026794;28;20032;-58
2021/06/02 08:28:37;;;;;;;0.52;0.22;;;;;;;-148.58;100.00;55229.56;5025163;28;20075;-59
2021/06/02 08:31:03;;;;;;;0.70;0.30;;;;;;;-148.58;100.00;55229.56;5019837;28;20190;-59
2021/06/02 08:33:28;;;;;;;1.65;0.43;;;;;;;-148.58;100.00;55229.56;5023702;28;20370;-58
2021/06/02 08:35:54;;;;;;;0.30;0.30;;;;;;;-148.58;100.00;55229.56;5022800;28;20063;-58
2021/06/02 08:38:19;;;;;;;0.80;0.30;;;;;;;-148.58;100.00;55229.56;5022054;28;20021;-60
2021/06/02 08:40:45;;;;;;;1.00;0.28;;;;;;;-148.58;100.00;55229.56;5021380;28;20037;-59
2021/06/02 08:43:11;;;;;;;1.60;0.25;;;;;;;-148.58;100.00;55229.56;5021253;28;20045;-58
2021/06/02 08:45:37;;;;;;;0.20;0.10;;;;;;;-148.58;100.00;55229.56;5019079;28;20037;-58
2021/06/02 08:48:03;;;;;;;0.73;0.28;;;;;;;-148.58;100.00;55229.56;5025640;28;20895;-58
2021/06/02 08:50:28;;;;;;;1.85;0.20;;;;;;;-148.58;100.00;55229.56;5024731;28;20160;-57
2021/06/02 08:52:56;;;;;;;0.75;0.50;;;;;;;-148.58;100.00;55229.56;5025016;28;20025;-58
2021/06/02 08:55:23;;;;;;;1.50;0.57;;;;;;;-148.58;100.00;55229.56;5033063;28;20042;-57
2021/06/02 08:57:50;;;;;;;1.88;0.32;;;;;;;-148.58;100.00;55229.56;5028919;28;20037;-57
2021/06/02 09:00:18;;;;;;;2.38;0.60;;;;;;;-148.58;100.00;55229.56;5018220;28;20037;-57
2021/06/02 09:02:45;;;;;;;3.10;0.57;;;;;;;-148.58;100.00;55229.56;5015706;28;20054;-57
2021/06/02 09:05:12;;;;;;;1.10;0.30;;;;;;;-148.58;100.00;55229.56;5041044;28;20031;-58
2021/06/02 09:07:40;;;;;;;1.48;0.30;;;;;;;-148.58;100.00;55229.56;5021268;28;20095;-58
2021/06/02 09:10:11;;;;;;;0.65;0.30;;;;;;;-148.58;100.00;55229.56;5022019;28;20370;-58
2021/06/02 09:12:39;;;;;;;1.45;0.20;;;;;;;-148.58;100.00;55229.56;5023503;28;20104;-58
2021/06/02 09:15:12;;;;;;;0.88;0.20;;;;;;;-148.58;100.00;55229.56;5018567;28;20465;-58
2021/06/02 09:18:04;;;;;;;0.80;0.20;;;;;;;-148.58;100.00;55229.56;5026278;28;20427;-58
2021/06/02 09:20:33;;;;;;;1.80;0.30;;;;;;;-148.58;100.00;55229.56;5015622;28;20025;-58
2021/06/02 09:23:00;;;;;;;1.15;0.32;;;;;;;-148.58;100.00;55229.56;5027594;28;20053;-58
2021/06/02 09:25:25;;;;;;;2.25;0.57;;;;;;;-148.58;100.00;55229.56;5022326;28;20048;-59
2021/06/02 09:27:55;;;;;;;1.98;0.50;;;;;;;-148.58;100.00;55229.56;5016110;28;20099;-59
2021/06/02 09:30:32;;;;;;;2.67;0.43;;;;;;;-148.58;100.00;55229.56;5016421;28;20380;-58
2021/06/02 09:32:59;;;;;;;1.33;0.60;;;;;;;-148.58;100.00;55229.56;5019146;28;20041;-59
2021/06/02 09:35:35;;;;;;;2.00;0.50;;;;;;;-148.58;100.00;55229.56;5021484;28;20049;-59
2021/06/02 09:38:01;;;;;;;2.00;0.30;;;;;;;-148.58;100.00;55229.56;5025612;28;20037;-59
2021/06/02 09:40:31;;;;;;;1.80;0.30;;;;;;;-148.58;100.00;55229.56;5021672;28;20029;-59
2021/06/02 09:42:57;;;;;;;1.42;0.50;;;;;;;-148.58;100.00;55229.56;5012270;28;20469;-59
2021/06/02 09:45:23;;;;;;;1.88;0.65;;;;;;;-148.58;100.00;55229.56;5028377;28;20032;-60
2021/06/02 09:47:55;;;;;;;2.90;0.28;;;;;;;-148.58;100.00;55229.56;5031094;28;20025;-58
2021/06/02 09:50:35;;;;;;;0.43;0.20;;;;;;;-148.58;100.00;55229.56;5025098;28;20503;-58
2021/06/02 09:53:05;;;;;;;0.40;0.30;;;;;;;-148.58;100.00;55229.56;5020014;28;20096;-59
2021/06/02 09:55:39;;;;;;;1.02;0.30;;;;;;;-148.58;100.00;55229.56;5022254;28;20056;-60
2021/06/02 09:58:07;;;;;;;0.25;0.22;;;;;;;-148.58;100.00;55229.56;5026240;28;20033;-58
2021/06/02 10:00:58;;;;;;;1.17;0.40;;;;;;;-148.58;100.00;55229.56;5016909;28;20601;-58
2021/06/02 10:03:27;;;;;;;2.47;0.55;;;;;;;-148.58;100.00;55229.56;5016983;28;20038;-58
2021/06/02 10:05:54;;;;;;;1.20;0.20;;;;;;;-148.58;100.00;55229.56;5015416;28;20071;-59
2021/06/02 10:08:34;;;;;;;1.17;0.40;;;;;;;-148.58;100.00;55229.56;5014977;28;20061;-58
2021/06/02 10:11:17;;;;;;;1.58;0.70;;;;;;;-148.58;100.00;55229.56;5011972;28;20057;-58
2021/06/02 10:13:43;;;;;;;1.10;0.30;;;;;;;-148.58;100.00;55229.56;5011253;28;20477;-58
2021/06/02 10:16:11;;;;;;;1.45;0.40;;;;;;;-148.58;100.00;55229.56;5013106;28;20030;-59
2021/06/02 10:18:39;;;;;;;1.00;0.60;;;;;;;-148.58;100.00;55229.56;5012745;28;20022;-58
2021/06/02 10:21:09;;;;;;;1.52;0.30;;;;;;;-148.58;100.00;55229.56;5012869;28;20060;-58
2021/06/02 10:23:40;;;;;;;1.80;0.35;;;;;;;-148.58;100.00;55229.56;5012748;28;20497;-58
2021/06/02 10:26:06;;;;;;;2.55;0.20;;;;;;;-148.58;100.00;55229.56;5011845;28;20477;-58
2021/06/02 10:28:32;;;;;;;3.83;0.40;;;;;;;-148.58;100.00;55229.56;5013483;28;20158;-58
2021/06/02 10:30:59;;;;;;;1.10;0.30;;;;;;;-148.58;100.00;55229.56;5013495;28;20523;-58
2021/06/02 10:33:26;;;;;;;1.13;0.50;;;;;;;-148.58;100.00;55229.56;5013444;28;20025;-58
2021/06/02 10:35:51;;;;;;;0.88;0.45;;;;;;;-148.58;100.00;55229.56;5013183;28;20026;-58
2021/06/02 10:38:17;;;;;;;0.82;0.30;;;;;;;-148.58;100.00;55229.56;5028429;28;20064;-59
2021/06/02 10:40:44;;;;;;;1.73;0.50;;;;;;;-148.58;100.00;55229.56;5013776;28;20060;-58
2021/06/02 10:43:15;;;;;;;1.75;0.30;;;;;;;-148.58;100.00;55229.56;5032828;28;20025;-58
2021/06/02 10:45:46;;;;;;;1.58;0.40;;;;;;;-148.58;100.00;55229.56;5032647;28;20068;-58
2021/06/02 10:48:12;;;;;;;0.50;0.22;;;;;;;-148.58;100.00;55229.56;5032858;28;20030;-59
2021/06/02 10:50:40;;;;;;;0.38;0.13;;;;;;;-148.58;100.00;55229.56;5032372;28;20526;-59
2021/06/02 10:53:17;;;;;;;1.05;0.43;;;;;;;-148.58;100.00;55229.56;5015024;28;20437;-58
2021/06/02 10:55:43;;;;;;;0.93;0.20;;;;;;;-148.58;100.00;55229.56;5032561;28;20051;-58
2021/06/02 10:58:41;;;;;;;0.70;0.20;;;;;;;-148.58;100.00;55229.56;5032742;28;20511;-58
2021/06/02 11:01:06;;;;;;;0.10;0.10;;;;;;;-148.58;100.00;55229.56;5020168;28;20050;-58
2021/06/02 11:03:32;;;;;;;0.30;0.20;;;;;;;-148.58;100.00;55229.56;5024678;28;20026;-59
2021/06/02 11:06:13;;;;;;;1.10;0.20;;;;;;;-148.58;100.00;55229.56;5016870;28;20279;-58
2021/06/02 11:08:50;;;;;;;0.82;0.10;;;;;;;-148.58;100.00;55229.56;5020698;28;20579;-58
2021/06/02 11:11:27;;;;;;;0.88;0.20;;;;;;;-148.58;100.00;55229.56;5015629;28;20071;-58
2021/06/02 11:14:17;;;;;;;0.30;0.10;;;;;;;-148.58;100.00;55229.56;5024351;28;20026;-58
2021/06/02 11:17:12;;;;;;;0.63;0.30;;;;;;;-148.58;100.00;55229.56;5018385;28;20368;-58
2021/06/02 11:19:42;;;;;;;0.60;0.20;;;;;;;-148.58;100.00;55229.56;5024715;28;20061;-58
2021/06/02 11:22:11;;;;;;;0.70;0.20;;;;;;;-148.58;100.00;55229.56;5035679;28;20076;-58
2021/06/02 11:24:39;;;;;;;1.38;0.17;;;;;;;-148.58;100.00;55229.56;5023483;28;20104;-59
2021/06/02 11:27:11;;;;;;;0.68;0.17;;;;;;;-148.58;100.00;55229.56;5030631;28;20024;-59
2021/06/02 11:29:51;;;;;;;1.83;0.30;;;;;;;-148.58;100.00;55229.56;5032130;28;20084;-59
2021/06/02 11:32:25;;;;;;;0.60;0.38;;;;;;;-148.58;100.00;55229.56;5025089;28;20069;-59
2021/06/02 11:34:52;;;;;;;0.52;0.17;;;;;;;-148.58;100.00;55229.56;5011814;28;20117;-58
2021/06/02 11:37:23;;;;;;;1.05;0.30;;;;;;;-148.58;100.00;55229.56;5012450;28;20499;-59
2021/06/02 11:39:53;;;;;;;0.68;0.25;;;;;;;-148.58;100.00;55229.56;5022251;28;20116;-58
2021/06/02 11:42:27;;;;;;;1.63;0.35;;;;;;;-148.58;100.00;55229.56;5020444;28;20116;-59
2021/06/02 11:45:00;;;;;;;3.72;0.30;;;;;;;-148.58;100.00;55229.56;5017451;28;20026;-59